CheckWX is a tool to help pilots better visualize weather data.  It is not intended as a substitute for an official pre-flight weather briefing.

03:14:16 UTC

EFTP TAF
Tampere-Pirkkala Airport
Tampere / Pirkkala, Finland
TAF EFTP 210235Z 2103/2203 15004KT 9000 -RA BKN001 OVC003 TEMPO 2103/2111 1200 BR BKN005 BECMG 2111/2113 9999 BKN011 BECMG 2116/2118 BKN015

Sep-21@
03:00 UTC

Sep-21 @ 03:00 UTC

Sep-21@
11:00 UTC

Sep-21 @ 11:00 UTC

TAF EFTP 210235Z 2103/2203 15004KT 9000 -RA BKN001 OVC003
Wind
  • 150° at 4 KTS
Conditions
Light Rain
Cloud Levels
  • Broken at 100' AGL
  • Overcast at 300' AGL

Sep-21@
03:00 UTC

Sep-21 @ 03:00 UTC

Sep-21@
11:00 UTC

Sep-21 @ 11:00 UTC

TEMPO 2103/2111 1200 BR BKN005

Temporary

Temporary Changes expected for less than half the time period

Conditions
Mist
Cloud Levels
  • Broken at 500' AGL

Sep-21@
11:00 UTC

Sep-21 @ 11:00 UTC

Sep-21@
16:00 UTC

Sep-21 @ 16:00 UTC

BECMG 2111/2113 9999 BKN011

Becoming

Becoming Conditions expected by Sat, Sep 21, 2019 @ 13:00 UTC

Wind
  • 150° at 4 KTS
Conditions
Light Rain
Cloud Levels
  • Broken at 1,100' AGL

Sep-21@
16:00 UTC

Sep-21 @ 16:00 UTC

Sep-22@
03:00 UTC

Sep-22 @ 03:00 UTC

BECMG 2116/2118 BKN015

Becoming

Becoming Conditions expected by Sat, Sep 21, 2019 @ 18:00 UTC

Wind
  • 150° at 4 KTS
Conditions
Light Rain
Cloud Levels
  • Broken at 1,500' AGL